Pearl City, IL (61062)

2:23 PM CST on December 22, 2014 (GMT -0600)
South of Lena | Change Station
CLOSE
Current Station
Personal Weather Station
Location: Lena, IL
Elevation: 919 ft
Nearby Weather Stations

Elev 919 ft 42.34 °N, 89.81 °W | Updated 13 minutes ago

Rain
Rain
34.4 °F
Feels Like 26 °F
N
11.0
Wind Variable Wind from ENE
Gusts 14.0 mph

Today
High -- | Low -- °F
--% Chance of Precip.
Yesterday
High -- | Low -- °F
Precip. -- in
7:25 AM 4:30 PM
New Moon, 1% visible
Pressure 29.66 in
Visibility 1.8 miles
Clouds Overcast 600 ft
Windchill 26 °F
Dew Point 34 °F
Humidity 97%
Rainfall 0.10 in
Snow Depth Not available.
UV 0 out of 12
Pollen .10 out of 12
Air Quality Not available.
Flu Activity Not available.
METAR KFEP 222015Z AUTO 09013KT 1 3/4SM -RA OVC006 01/01 A2966 RMK AO2 P0001 T00120007

More Conditions Fewer Conditions

Pressure 29.66 in
Visibility 1.8 miles
Clouds Overcast 600 ft
Windchill 26 °F
Dew Point 34 °F
Humidity 97%
Rainfall 0.10 in
Snow Depth Not available.
UV 0 out of 12
Pollen .10 out of 12
Air Quality Not available.
Flu Activity Not available.
METAR KFEP 222015Z AUTO 09013KT 1 3/4SM -RA OVC006 01/01 A2966 RMK AO2 P0001 T00120007

More Conditions Fewer Conditions

10-Day Weather Forecast

Almanac

Astronomy

Dec. 22, 2014 Rise Set
Actual Time
Civil Twilight
Nautical Twilight
Astronomical Twilight
Moon
Length of Visible Light
Length of Day
Tomorrow will be .
, % of the Moon is Illuminated

Today's Extremes

State Highs State Lows

Community

WunderPhotos

Upload Photos

1,779,702 photos uploaded!

WunderBlogs® & News

Nearby

Air Quality

  Air Quality AQ Index Pollutant
Not available.

Snow Depth

Station Depth Elevation

Earthquake Activity

City Distance Mag. Time & Date
Minimum magnitude displayed is 2.5.

Coastal Water Temperatures

Place Temperature

Nearby Weather Stations